Time;durP1;ratioP1;P1;durP2;ratioP2;P2;SDS_P1;SDS_P2;PMS_P1;PMS_P2;Temp;Humidity;BMP_temperature;BMP_pressure;BME280_temperature;BME280_humidity;BME280_pressure;Samples;Min_cycle;Max_cycle;Signal;HPM_P1;HPM_P2
2022/05/28 00:00:29;;;;;;;7.85;3.38;;;28.60;99.90;;;;;;4163356;28;20524;-65
2022/05/28 00:02:33;;;;;;;8.73;3.92;;;28.70;99.90;;;;;;4145051;28;20071;-65
2022/05/28 00:04:45;;;;;;;10.02;4.85;;;28.60;99.90;;;;;;4160234;28;20428;-65
2022/05/28 00:06:52;;;;;;;7.95;4.43;;;28.70;99.90;;;;;;4145917;28;20048;-65
2022/05/28 00:08:57;;;;;;;9.93;5.43;;;28.70;99.90;;;;;;4161443;28;20378;-65
2022/05/28 00:11:09;;;;;;;29.25;10.77;;;28.70;99.90;;;;;;4160196;28;20049;-65
2022/05/28 00:13:15;;;;;;;13.27;5.68;;;28.80;99.90;;;;;;4162390;28;20041;-66
2022/05/28 00:15:20;;;;;;;17.52;6.53;;;28.80;99.90;;;;;;4164949;28;20057;-66
2022/05/28 00:17:28;;;;;;;10.75;5.57;;;28.70;99.90;;;;;;4164198;28;20041;-66
2022/05/28 00:19:33;;;;;;;19.55;6.80;;;28.80;99.90;;;;;;4163794;28;20038;-66
2022/05/28 00:21:38;;;;;;;15.63;6.30;;;28.90;99.90;;;;;;4163729;28;20550;-66
2022/05/28 00:23:47;;;;;;;13.15;5.60;;;28.90;99.90;;;;;;4163625;28;20041;-67
2022/05/28 00:25:51;;;;;;;9.27;4.88;;;28.90;99.90;;;;;;4164519;28;20109;-66
2022/05/28 00:27:57;;;;;;;11.05;4.93;;;28.90;99.90;;;;;;4165482;28;20045;-67
2022/05/28 00:30:08;;;;;;;12.18;4.65;;;28.90;99.90;;;;;;4115320;28;20057;-67
2022/05/28 00:32:13;;;;;;;14.00;5.20;;;28.90;99.90;;;;;;4164950;28;20064;-66
2022/05/28 00:34:18;;;;;;;15.13;5.50;;;29.00;99.90;;;;;;4164905;28;20049;-66
2022/05/28 00:36:25;;;;;;;8.45;4.25;;;28.90;99.90;;;;;;4163259;28;20064;-66
2022/05/28 00:38:31;;;;;;;11.10;4.55;;;28.90;99.90;;;;;;4169418;28;20092;-66
2022/05/28 00:40:36;;;;;;;9.98;4.38;;;28.90;99.90;;;;;;4164109;28;20057;-66
2022/05/28 00:42:45;;;;;;;13.77;4.65;;;28.90;99.90;;;;;;4161757;28;20397;-64
2022/05/28 00:44:49;;;;;;;8.02;4.30;;;28.90;99.90;;;;;;4162539;28;20590;-66
2022/05/28 00:46:55;;;;;;;9.00;5.15;;;29.00;99.90;;;;;;4162211;28;20103;-66
2022/05/28 00:49:04;;;;;;;8.68;4.30;;;29.00;99.90;;;;;;4176062;28;20059;-66
2022/05/28 00:51:12;;;;;;;9.38;4.60;;;29.00;99.90;;;;;;4149125;28;20038;-66
2022/05/28 00:53:38;;;;;;;12.38;4.07;;;28.90;99.90;;;;;;4096229;28;20453;-66
2022/05/28 00:55:47;;;;;;;11.95;4.97;;;29.00;99.90;;;;;;4079317;28;20893;-66
2022/05/28 00:57:52;;;;;;;12.88;5.00;;;29.10;99.90;;;;;;4108833;28;20777;-66
2022/05/28 00:59:56;;;;;;;20.20;10.88;;;29.10;99.90;;;;;;4109549;28;20142;-65
2022/05/28 01:02:25;;;;;;;12.18;7.47;;;29.10;99.90;;;;;;4112629;28;20047;-66
2022/05/28 01:04:48;;;;;;;13.60;8.57;;;29.20;99.90;;;;;;4107991;28;20062;-65
2022/05/28 01:07:17;;;;;;;14.35;9.45;;;29.30;99.90;;;;;;4111158;28;20078;-65
2022/05/28 01:09:56;;;;;;;13.23;8.07;;;29.30;99.90;;;;;;4110301;28;20047;-65
2022/05/28 01:12:13;;;;;;;11.82;6.88;;;29.30;99.90;;;;;;4111365;28;20098;-65
2022/05/28 01:14:21;;;;;;;11.18;7.53;;;29.40;99.90;;;;;;4110510;28;20046;-66
2022/05/28 01:16:36;;;;;;;12.40;8.00;;;29.40;99.90;;;;;;4111629;28;20050;-66
2022/05/28 01:18:50;;;;;;;26.63;15.35;;;29.50;99.90;;;;;;4149492;28;20378;-65
2022/05/28 01:21:07;;;;;;;17.95;10.45;;;29.50;99.90;;;;;;4146017;28;20045;-66
2022/05/28 01:23:17;;;;;;;10.70;6.05;;;29.60;99.90;;;;;;4169823;28;20045;-65
2022/05/28 01:25:44;;;;;;;10.32;5.63;;;29.50;99.90;;;;;;4161942;28;20042;-66
2022/05/28 01:28:01;;;;;;;14.18;5.78;;;29.50;99.90;;;;;;4162541;28;20507;-66
2022/05/28 01:30:09;;;;;;;10.70;5.88;;;29.60;99.90;;;;;;4124267;28;20047;-66
2022/05/28 01:32:14;;;;;;;14.25;5.90;;;29.70;99.90;;;;;;4162001;28;20160;-65
2022/05/28 01:34:20;;;;;;;13.30;5.80;;;29.80;99.90;;;;;;4162279;28;20427;-66
2022/05/28 01:36:26;;;;;;;13.18;5.30;;;29.80;99.60;;;;;;4161597;28;20041;-67
2022/05/28 01:38:31;;;;;;;11.35;5.05;;;29.80;99.30;;;;;;4162011;28;20440;-66
2022/05/28 01:40:36;;;;;;;11.73;5.75;;;29.90;99.40;;;;;;4173749;28;20064;-67
2022/05/28 01:42:49;;;;;;;14.07;5.20;;;29.90;99.40;;;;;;4127065;28;20054;-66
2022/05/28 01:44:53;;;;;;;14.27;5.47;;;30.10;99.30;;;;;;4168613;28;20481;-66
2022/05/28 01:46:58;;;;;;;14.68;5.30;;;30.10;99.30;;;;;;4156409;28;20041;-65
2022/05/28 01:49:06;;;;;;;12.32;5.13;;;30.20;99.10;;;;;;4150236;28;20048;-66
2022/05/28 01:51:12;;;;;;;11.40;4.65;;;30.20;98.90;;;;;;4159696;28;20045;-66
2022/05/28 01:55:40;;;;;;;12.63;5.20;;;30.30;98.80;;;;;;4127683;28;20141;-66
2022/05/28 01:57:45;;;;;;;13.02;4.72;;;30.30;98.60;;;;;;4141761;28;20533;-65
2022/05/28 01:59:49;;;;;;;12.38;4.97;;;30.40;98.60;;;;;;4128526;28;20449;-65
2022/05/28 02:01:57;;;;;;;18.15;4.82;;;30.40;98.80;;;;;;4140148;28;20072;-65
2022/05/28 02:04:07;;;;;;;10.82;4.60;;;30.50;98.30;;;;;;4134937;28;20551;-65
2022/05/28 02:06:11;;;;;;;13.35;4.57;;;30.50;98.50;;;;;;4115911;28;20117;-66
2022/05/28 02:08:21;;;;;;;9.07;4.53;;;30.50;98.40;;;;;;4112859;28;20569;-66
2022/05/28 02:10:26;;;;;;;12.40;4.50;;;30.70;98.50;;;;;;4117403;28;20050;-65
2022/05/28 02:12:33;;;;;;;12.95;4.55;;;30.80;98.30;;;;;;4143211;28;20111;-66
2022/05/28 02:14:51;;;;;;;10.88;4.50;;;30.80;98.00;;;;;;4129503;28;20051;-66
2022/05/28 02:17:22;;;;;;;16.08;5.05;;;30.90;98.30;;;;;;4120351;28;20540;-66
2022/05/28 02:19:28;;;;;;;12.20;4.90;;;31.00;98.00;;;;;;4126455;28;20048;-66
2022/05/28 02:22:02;;;;;;;13.15;5.03;;;31.00;97.60;;;;;;4087974;28;20051;-66
2022/05/28 02:24:23;;;;;;;10.63;4.13;;;31.10;97.60;;;;;;4119304;28;20052;-65
2022/05/28 02:26:31;;;;;;;9.48;4.32;;;31.20;97.60;;;;;;4169305;28;20107;-67
2022/05/28 02:28:37;;;;;;;10.75;4.38;;;31.30;97.40;;;;;;4162272;28;20543;-67
2022/05/28 02:30:50;;;;;;;11.15;4.90;;;31.20;97.20;;;;;;4158262;28;20037;-67
2022/05/28 02:33:15;;;;;;;11.88;5.38;;;31.30;97.30;;;;;;4146268;28;20049;-66
2022/05/28 02:35:22;;;;;;;14.25;4.72;;;31.30;96.10;;;;;;4154335;28;20045;-67
2022/05/28 02:37:27;;;;;;;17.55;7.25;;;31.30;95.60;;;;;;4162048;28;20069;-67
2022/05/28 02:39:33;;;;;;;10.90;4.78;;;31.30;96.00;;;;;;4160905;28;20079;-67
2022/05/28 02:41:41;;;;;;;12.68;4.65;;;31.40;95.10;;;;;;4136056;28;20053;-66
2022/05/28 02:43:46;;;;;;;17.55;7.18;;;31.40;94.80;;;;;;4156088;28;20057;-67
2022/05/28 02:45:51;;;;;;;13.88;6.07;;;31.40;95.50;;;;;;4155959;28;20052;-67
2022/05/28 02:48:00;;;;;;;14.55;4.50;;;31.50;95.30;;;;;;4161282;28;20133;-67
2022/05/28 02:50:06;;;;;;;11.80;4.50;;;31.50;95.30;;;;;;4160471;28;20041;-69
2022/05/28 02:52:10;;;;;;;10.93;4.32;;;31.60;95.20;;;;;;4162006;28;20128;-66
2022/05/28 02:54:19;;;;;;;12.63;4.13;;;31.60;95.00;;;;;;4160788;28;20045;-67
2022/05/28 02:56:24;;;;;;;14.88;4.15;;;31.60;94.60;;;;;;4150052;28;20065;-67
2022/05/28 02:58:29;;;;;;;8.48;4.03;;;31.60;94.70;;;;;;4160790;28;20092;-66
2022/05/28 03:00:37;;;;;;;15.93;4.78;;;31.70;94.60;;;;;;4156324;28;20064;-67
2022/05/28 03:02:42;;;;;;;16.65;5.20;;;31.80;94.30;;;;;;4158538;28;20053;-66
2022/05/28 03:04:47;;;;;;;11.63;4.05;;;31.80;94.60;;;;;;4161997;28;20041;-68
2022/05/28 03:06:55;;;;;;;10.32;4.28;;;31.90;94.20;;;;;;4162716;28;20045;-67
2022/05/28 03:08:59;;;;;;;12.27;4.72;;;31.80;94.00;;;;;;4160025;28;20056;-67
2022/05/28 03:11:04;;;;;;;12.68;4.65;;;31.70;93.90;;;;;;4162671;28;20041;-67
2022/05/28 03:13:19;;;;;;;12.98;4.53;;;31.80;94.40;;;;;;4127897;28;20505;-67
2022/05/28 03:15:24;;;;;;;10.90;3.97;;;31.90;94.20;;;;;;4161500;28;20049;-67
2022/05/28 03:17:29;;;;;;;13.50;4.20;;;32.00;93.60;;;;;;4151635;28;20053;-67
2022/05/28 03:19:37;;;;;;;16.45;4.80;;;32.10;93.80;;;;;;4153753;28;20050;-67
2022/05/28 03:21:42;;;;;;;14.93;4.65;;;32.20;94.00;;;;;;4158795;28;20060;-67
2022/05/28 03:23:50;;;;;;;12.52;4.38;;;32.20;93.10;;;;;;4161433;28;20041;-67
2022/05/28 03:26:16;;;;;;;15.50;4.70;;;32.20;93.20;;;;;;4133588;28;20405;-67
2022/05/28 03:28:21;;;;;;;13.15;5.00;;;32.20;93.10;;;;;;4154918;28;20072;-67
2022/05/28 03:30:26;;;;;;;14.40;5.05;;;32.30;92.90;;;;;;4154689;28;20046;-67
2022/05/28 03:32:33;;;;;;;12.50;4.68;;;32.30;92.80;;;;;;4159425;28;20176;-66
2022/05/28 03:34:38;;;;;;;12.07;4.78;;;32.10;92.80;;;;;;4153159;28;20041;-66
2022/05/28 03:36:44;;;;;;;13.05;5.07;;;32.10;93.10;;;;;;4148368;28;20041;-67
2022/05/28 03:38:50;;;;;;;12.20;4.78;;;32.30;93.30;;;;;;4156636;28;20520;-67
2022/05/28 03:40:55;;;;;;;14.85;5.10;;;32.30;92.60;;;;;;4158188;28;20057;-67
2022/05/28 03:43:00;;;;;;;12.15;4.43;;;32.50;93.20;;;;;;4160448;28;20058;-66
2022/05/28 03:45:10;;;;;;;14.25;4.93;;;32.60;93.40;;;;;;4160052;28;20076;-66
2022/05/28 03:47:15;;;;;;;13.52;4.97;;;32.70;93.40;;;;;;4158723;28;20104;-66
2022/05/28 03:49:21;;;;;;;12.10;4.72;;;32.70;93.30;;;;;;4155863;28;20037;-67
2022/05/28 03:51:28;;;;;;;12.80;4.70;;;32.70;93.70;;;;;;4158994;28;20041;-66
2022/05/28 03:53:32;;;;;;;11.98;5.03;;;32.60;93.50;;;;;;4159032;28;20471;-67
2022/05/28 03:55:38;;;;;;;10.77;4.47;;;32.80;93.60;;;;;;4160089;28;20095;-67
2022/05/28 03:57:55;;;;;;;9.60;5.13;;;32.90;93.60;;;;;;4161192;28;20500;-67
2022/05/28 04:00:02;;;;;;;11.60;4.65;;;33.00;92.90;;;;;;4161152;28;20135;-66
2022/05/28 04:02:13;;;;;;;12.50;4.72;;;33.10;92.90;;;;;;4161037;28;20042;-66
2022/05/28 04:04:27;;;;;;;13.05;4.55;;;33.10;92.60;;;;;;4160368;28;20046;-66
2022/05/28 04:06:47;;;;;;;13.18;4.88;;;33.20;92.70;;;;;;4159696;28;20499;-66
2022/05/28 04:09:11;;;;;;;8.35;4.20;;;33.20;92.70;;;;;;4135193;28;20049;-66
2022/05/28 04:11:32;;;;;;;13.88;4.50;;;33.10;92.60;;;;;;4123204;28;20042;-66
2022/05/28 04:13:56;;;;;;;14.95;4.60;;;33.00;91.60;;;;;;4155567;28;20050;-66
2022/05/28 04:16:17;;;;;;;17.05;5.43;;;33.00;92.40;;;;;;4172842;28;20132;-66
2022/05/28 04:18:40;;;;;;;13.65;5.07;;;33.30;92.30;;;;;;4177364;28;20049;-66
2022/05/28 04:20:45;;;;;;;11.93;5.15;;;33.40;92.30;;;;;;4158088;28;20111;-66
2022/05/28 04:22:51;;;;;;;12.00;4.82;;;33.50;91.90;;;;;;4163705;28;20103;-66
2022/05/28 04:24:59;;;;;;;14.95;4.32;;;33.30;92.40;;;;;;4161263;28;20049;-66
2022/05/28 04:27:08;;;;;;;13.32;4.97;;;33.20;92.60;;;;;;4164110;28;20102;-66
2022/05/28 04:29:22;;;;;;;12.02;4.57;;;33.50;92.20;;;;;;4162803;28;20052;-66
2022/05/28 04:31:28;;;;;;;15.30;5.15;;;33.50;92.00;;;;;;4166797;28;20288;-66
2022/05/28 04:33:38;;;;;;;13.90;4.45;;;33.50;91.20;;;;;;4164314;28;20053;-67
2022/05/28 04:35:43;;;;;;;8.20;4.75;;;33.50;90.90;;;;;;4163318;28;20103;-66
2022/05/28 04:37:55;;;;;;;17.75;5.45;;;33.60;91.50;;;;;;4156152;28;20141;-67
2022/05/28 04:40:00;;;;;;;13.63;4.72;;;34.00;91.40;;;;;;4169499;28;20037;-67
2022/05/28 04:42:13;;;;;;;13.23;4.35;;;34.00;90.70;;;;;;4157740;28;20064;-67
2022/05/28 04:44:22;;;;;;;13.48;4.90;;;33.90;91.10;;;;;;4162352;28;20523;-67
2022/05/28 04:46:28;;;;;;;12.40;5.53;;;33.80;90.90;;;;;;4163401;28;20049;-67
2022/05/28 04:48:36;;;;;;;16.35;5.28;;;33.70;90.60;;;;;;4157873;28;20072;-67
2022/05/28 04:50:45;;;;;;;11.43;4.90;;;33.60;91.00;;;;;;4162773;28;20087;-67
2022/05/28 04:52:50;;;;;;;10.63;4.55;;;33.50;90.90;;;;;;4163546;28;20048;-67
2022/05/28 04:54:56;;;;;;;11.73;4.43;;;33.50;91.10;;;;;;4138957;28;20092;-67
2022/05/28 04:57:05;;;;;;;14.50;4.82;;;33.40;91.20;;;;;;4162177;28;20124;-67
2022/05/28 04:59:10;;;;;;;9.90;4.57;;;33.60;90.90;;;;;;4128844;28;20042;-66
2022/05/28 05:01:16;;;;;;;11.10;4.57;;;33.90;90.80;;;;;;4161547;28;20093;-67
2022/05/28 05:03:32;;;;;;;16.10;4.93;;;33.80;90.70;;;;;;4161868;28;20474;-67
2022/05/28 05:05:37;;;;;;;9.95;4.50;;;34.00;90.60;;;;;;4159087;28;20131;-67
2022/05/28 05:07:42;;;;;;;11.18;3.65;;;34.20;90.50;;;;;;4161768;28;20053;-67
2022/05/28 05:09:52;;;;;;;8.32;4.10;;;34.10;90.30;;;;;;4150825;28;20423;-67
2022/05/28 05:11:58;;;;;;;13.90;5.22;;;34.00;90.90;;;;;;4161614;28;20077;-67
2022/05/28 05:14:05;;;;;;;12.60;5.32;;;33.90;90.90;;;;;;4158881;28;20037;-67
2022/05/28 05:16:17;;;;;;;11.05;4.97;;;33.80;91.50;;;;;;4161359;28;20088;-67
2022/05/28 05:18:26;;;;;;;12.00;4.45;;;33.80;91.70;;;;;;4163023;28;20136;-67
2022/05/28 05:20:33;;;;;;;13.90;5.50;;;33.70;91.60;;;;;;4163459;28;20053;-67
2022/05/28 05:22:43;;;;;;;12.65;5.30;;;33.80;91.70;;;;;;4120813;28;20066;-67
2022/05/28 05:24:51;;;;;;;11.85;5.00;;;33.90;91.80;;;;;;4154230;28;20069;-67
2022/05/28 05:26:59;;;;;;;13.82;5.00;;;33.80;91.90;;;;;;4162400;28;20462;-67
2022/05/28 05:29:06;;;;;;;15.35;5.13;;;34.10;91.80;;;;;;4160108;28;20041;-66
2022/05/28 05:31:27;;;;;;;12.98;5.13;;;34.20;91.50;;;;;;4155008;28;20053;-67
2022/05/28 05:33:34;;;;;;;9.85;4.75;;;34.20;91.40;;;;;;4158173;28;20037;-66
2022/05/28 05:35:43;;;;;;;10.45;4.70;;;34.10;91.50;;;;;;4118090;28;20718;-66
2022/05/28 05:37:50;;;;;;;11.63;5.15;;;34.00;91.20;;;;;;4161542;28;20089;-66
2022/05/28 05:39:56;;;;;;;12.40;4.93;;;33.90;91.00;;;;;;4161401;28;20037;-66
2022/05/28 05:42:10;;;;;;;11.48;4.88;;;33.90;91.60;;;;;;4158275;28;20508;-66
2022/05/28 05:44:16;;;;;;;9.45;4.63;;;33.90;91.50;;;;;;4158938;28;20037;-66
2022/05/28 05:46:28;;;;;;;12.43;4.97;;;34.00;91.20;;;;;;4160206;28;20049;-66
2022/05/28 05:48:36;;;;;;;12.80;4.88;;;34.20;91.30;;;;;;4145748;28;20287;-66
2022/05/28 05:50:43;;;;;;;12.93;5.32;;;34.30;90.70;;;;;;4161175;28;20049;-66
2022/05/28 05:52:50;;;;;;;12.40;4.88;;;34.20;91.00;;;;;;4156339;28;20169;-66
2022/05/28 05:54:57;;;;;;;14.48;4.93;;;34.10;91.40;;;;;;4169824;28;20068;-67
2022/05/28 05:57:05;;;;;;;14.98;5.10;;;34.10;91.60;;;;;;4155583;28;20508;-66
2022/05/28 05:59:12;;;;;;;12.35;5.65;;;34.00;91.60;;;;;;4157564;28;20721;-66
2022/05/28 06:01:20;;;;;;;18.02;6.35;;;33.90;91.70;;;;;;4139499;28;20038;-66
2022/05/28 06:03:32;;;;;;;17.25;6.18;;;33.80;91.80;;;;;;4162228;28;20050;-66
2022/05/28 06:05:38;;;;;;;14.40;5.75;;;33.70;91.70;;;;;;4157093;28;20084;-66
2022/05/28 06:07:47;;;;;;;14.73;5.32;;;33.70;91.80;;;;;;4154681;28;20053;-64
2022/05/28 06:09:52;;;;;;;11.77;5.63;;;33.70;91.90;;;;;;4161020;28;20037;-65
2022/05/28 06:11:58;;;;;;;15.20;5.30;;;33.70;91.90;;;;;;4162015;28;20856;-65
2022/05/28 06:14:06;;;;;;;17.02;5.20;;;33.70;91.70;;;;;;4161401;28;20087;-65
2022/05/28 06:16:14;;;;;;;14.55;5.72;;;34.10;91.50;;;;;;4162807;28;20049;-65
2022/05/28 06:18:22;;;;;;;17.65;5.32;;;34.30;91.20;;;;;;4161924;28;20029;-64
2022/05/28 06:20:31;;;;;;;12.15;4.95;;;34.30;90.90;;;;;;4161902;28;20068;-64
2022/05/28 06:22:38;;;;;;;14.15;5.40;;;34.40;90.80;;;;;;4162632;28;20068;-65
2022/05/28 06:24:43;;;;;;;15.45;5.90;;;34.30;91.00;;;;;;4161430;28;20045;-65
2022/05/28 06:27:00;;;;;;;13.20;5.00;;;34.40;90.90;;;;;;4155851;28;20045;-65
2022/05/28 06:29:09;;;;;;;14.73;5.30;;;34.70;90.60;;;;;;4183172;28;20562;-65
2022/05/28 06:31:26;;;;;;;12.63;5.95;;;34.90;90.50;;;;;;4158520;28;20559;-67
2022/05/28 06:33:36;;;;;;;13.52;5.53;;;35.00;90.30;;;;;;4155182;28;20052;-65
2022/05/28 06:35:44;;;;;;;13.38;5.40;;;35.20;90.50;;;;;;4160714;28;20037;-66
2022/05/28 06:37:52;;;;;;;11.75;5.22;;;35.30;90.20;;;;;;4138105;28;20042;-65
2022/05/28 06:40:01;;;;;;;13.98;5.40;;;35.30;90.40;;;;;;4145657;28;20687;-66
2022/05/28 06:42:10;;;;;;;14.95;5.10;;;35.00;90.60;;;;;;4136838;28;20566;-66
2022/05/28 06:44:16;;;;;;;14.68;5.22;;;35.00;90.60;;;;;;4156383;28;20724;-64
2022/05/28 06:46:25;;;;;;;13.88;4.93;;;34.90;90.70;;;;;;4157183;28;20049;-65
2022/05/28 06:48:37;;;;;;;21.00;5.00;;;35.00;90.60;;;;;;4183327;28;20036;-64
2022/05/28 06:53:07;;;;;;;12.23;5.15;;;35.10;90.60;;;;;;4151448;28;20054;-65
2022/05/28 06:55:12;;;;;;;13.93;4.63;;;34.90;90.60;;;;;;4151722;28;20053;-66
2022/05/28 06:57:18;;;;;;;10.75;5.55;;;34.90;90.60;;;;;;4161331;28;20045;-66
2022/05/28 06:59:27;;;;;;;14.73;5.45;;;35.20;90.30;;;;;;4161745;28;20052;-65
2022/05/28 07:01:34;;;;;;;12.90;5.07;;;35.10;90.10;;;;;;4161118;28;20045;-65
2022/05/28 07:03:43;;;;;;;14.10;5.03;;;35.10;90.30;;;;;;4161528;28;20045;-65
2022/05/28 07:05:50;;;;;;;12.23;5.07;;;35.10;90.40;;;;;;4152604;28;20049;-65
2022/05/28 07:07:57;;;;;;;11.43;4.88;;;35.30;90.30;;;;;;4176612;28;20045;-65
2022/05/28 07:10:04;;;;;;;14.48;5.10;;;35.50;90.40;;;;;;4153787;28;20045;-65
2022/05/28 07:12:12;;;;;;;11.35;5.20;;;35.50;90.30;;;;;;4152693;28;20456;-65
2022/05/28 07:14:20;;;;;;;12.70;5.65;;;35.40;90.50;;;;;;4165715;28;20443;-65
2022/05/28 07:16:26;;;;;;;17.50;5.68;;;35.40;90.30;;;;;;4160467;28;20492;-66
2022/05/28 07:18:34;;;;;;;17.45;5.20;;;35.50;90.20;;;;;;4161998;28;20856;-66
2022/05/28 07:20:40;;;;;;;15.90;5.38;;;35.60;90.00;;;;;;4161503;28;20564;-66
2022/05/28 07:22:45;;;;;;;14.60;5.40;;;35.80;90.10;;;;;;4160682;28;20045;-66
2022/05/28 07:24:57;;;;;;;11.63;5.47;;;35.80;90.20;;;;;;4145389;28;20037;-66
2022/05/28 07:27:02;;;;;;;13.95;4.82;;;35.60;90.00;;;;;;4158959;28;20054;-65
2022/05/28 07:29:08;;;;;;;15.05;5.10;;;35.40;90.10;;;;;;4152279;28;20083;-65
2022/05/28 07:31:18;;;;;;;13.85;5.65;;;35.30;90.20;;;;;;4158006;28;20425;-66
2022/05/28 07:33:26;;;;;;;16.02;5.35;;;35.10;90.40;;;;;;4156213;28;20550;-66
2022/05/28 07:35:31;;;;;;;11.40;5.22;;;34.90;90.70;;;;;;4156602;28;20195;-65
2022/05/28 07:37:40;;;;;;;16.30;5.45;;;34.90;90.50;;;;;;4162839;28;20050;-65
2022/05/28 07:39:45;;;;;;;15.52;5.10;;;35.10;90.50;;;;;;4160701;28;20042;-65
2022/05/28 07:41:50;;;;;;;12.20;4.47;;;35.30;90.20;;;;;;4161912;28;20050;-65
2022/05/28 07:43:59;;;;;;;11.68;5.30;;;35.30;90.00;;;;;;4136352;28;20049;-65
2022/05/28 07:46:20;;;;;;;15.23;5.55;;;35.10;90.30;;;;;;4155433;28;20131;-65
2022/05/28 07:48:26;;;;;;;11.90;5.15;;;35.00;90.50;;;;;;4161765;28;20410;-65
2022/05/28 07:50:36;;;;;;;17.83;5.88;;;34.90;90.50;;;;;;4123714;28;20085;-65
2022/05/28 07:52:41;;;;;;;15.93;6.43;;;35.00;90.60;;;;;;4163450;28;20033;-66
2022/05/28 07:54:51;;;;;;;12.05;5.80;;;35.20;90.50;;;;;;4164787;28;20091;-66
2022/05/28 07:57:01;;;;;;;15.98;6.07;;;35.40;90.50;;;;;;4154630;28;20103;-65
2022/05/28 07:59:06;;;;;;;17.50;6.57;;;35.50;90.40;;;;;;4163453;28;20080;-65
2022/05/28 08:01:24;;;;;;;19.15;7.97;;;35.40;90.50;;;;;;4162632;28;20049;-65
2022/05/28 08:03:30;;;;;;;15.80;7.97;;;35.40;90.20;;;;;;4165478;28;20638;-66
2022/05/28 08:05:37;;;;;;;17.38;7.72;;;35.40;90.30;;;;;;4165273;28;20415;-66
2022/05/28 08:07:42;;;;;;;13.15;7.05;;;35.40;90.30;;;;;;4165307;28;20050;-66
2022/05/28 08:09:49;;;;;;;18.52;7.60;;;35.50;90.20;;;;;;4164356;28;20045;-65
2022/05/28 08:11:53;;;;;;;18.52;8.18;;;35.50;90.10;;;;;;4165035;28;20381;-65
2022/05/28 08:14:00;;;;;;;17.60;7.57;;;35.50;90.20;;;;;;4165317;28;20128;-66
2022/05/28 08:16:15;;;;;;;21.23;7.97;;;35.50;90.50;;;;;;4165010;28;20070;-65
2022/05/28 08:18:23;;;;;;;15.85;7.22;;;35.40;90.60;;;;;;4165186;28;20484;-65
2022/05/28 08:25:07;;;;;;;15.55;6.80;;;35.30;91.00;;;;;;4163363;28;20041;-65
2022/05/28 08:27:16;;;;;;;13.98;6.38;;;35.30;91.20;;;;;;4162608;28;20048;-65
2022/05/28 08:29:24;;;;;;;16.50;6.47;;;35.30;91.20;;;;;;4160620;28;20076;-66
2022/05/28 08:31:30;;;;;;;19.13;7.90;;;35.20;91.30;;;;;;4163589;28;20143;-65
2022/05/28 08:33:35;;;;;;;14.25;6.90;;;35.20;91.20;;;;;;4146907;28;20536;-65
2022/05/28 08:35:45;;;;;;;16.65;6.78;;;35.10;91.00;;;;;;4156586;28;20037;-65
2022/05/28 08:37:50;;;;;;;13.55;6.38;;;35.00;90.80;;;;;;4161607;28;20034;-65
2022/05/28 08:39:59;;;;;;;15.68;6.70;;;34.90;91.00;;;;;;4163682;28;20037;-66
2022/05/28 08:42:06;;;;;;;15.23;6.97;;;34.80;90.90;;;;;;4163512;28;20060;-66
2022/05/28 08:44:15;;;;;;;14.73;6.03;;;35.00;91.00;;;;;;4162793;28;20491;-66
2022/05/28 08:46:20;;;;;;;17.08;6.05;;;35.00;91.00;;;;;;4162687;28;20049;-66
2022/05/28 08:48:34;;;;;;;11.73;6.22;;;35.00;91.10;;;;;;4193907;28;20058;-65
2022/05/28 08:50:52;;;;;;;13.73;5.95;;;35.10;91.00;;;;;;4160492;28;20053;-66
2022/05/28 08:53:05;;;;;;;14.23;5.57;;;35.10;91.10;;;;;;4168598;28;20041;-66
2022/05/28 08:55:16;;;;;;;16.08;6.78;;;35.20;91.10;;;;;;4162183;28;20064;-65
2022/05/28 08:57:22;;;;;;;14.00;6.10;;;35.10;91.10;;;;;;4145833;28;20045;-65
2022/05/28 08:59:33;;;;;;;16.13;6.13;;;35.10;91.20;;;;;;4161566;28;20129;-65
2022/05/28 09:01:44;;;;;;;12.15;6.47;;;35.00;90.80;;;;;;4161738;28;20504;-65
2022/05/28 09:03:57;;;;;;;19.33;6.55;;;35.00;91.00;;;;;;4162151;28;20100;-64
2022/05/28 09:06:11;;;;;;;16.42;6.88;;;35.00;91.00;;;;;;4161860;28;20136;-66
2022/05/28 09:08:29;;;;;;;18.50;6.90;;;34.90;90.90;;;;;;4163257;28;20045;-65
2022/05/28 09:10:41;;;;;;;18.27;7.43;;;34.90;91.10;;;;;;4144783;28;20054;-65
2022/05/28 09:12:55;;;;;;;14.73;7.47;;;34.90;91.20;;;;;;4146461;28;20056;-65
2022/05/28 09:15:03;;;;;;;19.10;6.68;;;35.00;90.90;;;;;;4154606;28;20061;-66
2022/05/28 09:17:21;;;;;;;18.83;7.55;;;35.10;90.70;;;;;;4157112;28;20121;-64
2022/05/28 09:19:32;;;;;;;17.65;7.30;;;35.10;90.60;;;;;;4163692;28;20041;-65
2022/05/28 09:21:41;;;;;;;16.27;6.45;;;35.20;90.60;;;;;;4163337;28;20405;-65
2022/05/28 09:23:59;;;;;;;14.82;6.85;;;35.00;90.50;;;;;;4162764;28;20052;-65
2022/05/28 09:26:04;;;;;;;16.83;6.43;;;35.00;90.60;;;;;;4177058;28;20099;-65
2022/05/28 09:28:13;;;;;;;17.73;7.55;;;34.80;90.70;;;;;;4160469;28;20053;-65
2022/05/28 09:30:35;;;;;;;16.27;6.70;;;34.70;90.70;;;;;;4164976;28;20055;-65
2022/05/28 09:32:52;;;;;;;15.15;6.63;;;34.70;90.70;;;;;;4170006;28;20193;-65
2022/05/28 09:35:19;;;;;;;18.40;7.53;;;34.60;90.80;;;;;;4168507;28;20605;-66
2022/05/28 09:37:45;;;;;;;19.10;7.50;;;34.40;91.10;;;;;;4167933;28;20037;-64
2022/05/28 09:40:03;;;;;;;18.02;6.80;;;34.40;91.10;;;;;;4164230;28;20084;-65
2022/05/28 09:42:23;;;;;;;17.70;6.55;;;34.20;91.00;;;;;;4183864;28;20069;-65
2022/05/28 09:44:40;;;;;;;15.93;6.40;;;34.20;91.00;;;;;;4163443;28;20556;-65
2022/05/28 09:46:46;;;;;;;15.00;5.97;;;34.20;91.10;;;;;;4163903;28;20386;-66
2022/05/28 09:49:00;;;;;;;17.83;6.22;;;34.10;91.30;;;;;;4170195;28;20045;-64
2022/05/28 09:51:07;;;;;;;23.33;8.77;;;34.00;91.60;;;;;;4166553;28;20045;-66
2022/05/28 09:55:40;;;;;;;19.58;9.20;;;33.90;91.50;;;;;;4166300;28;20048;-65
2022/05/28 09:58:04;;;;;;;16.05;9.45;;;33.90;91.40;;;;;;4163067;28;20045;-67
2022/05/28 10:00:11;;;;;;;17.75;8.80;;;33.80;91.30;;;;;;4189105;28;20040;-65
2022/05/28 10:02:22;;;;;;;19.65;7.85;;;33.80;91.40;;;;;;4166770;28;20072;-65
2022/05/28 10:04:30;;;;;;;14.35;6.50;;;33.50;91.70;;;;;;4177747;28;20037;-65
2022/05/28 10:06:51;;;;;;;14.05;6.47;;;33.40;91.90;;;;;;4182071;28;20045;-65
2022/05/28 10:08:58;;;;;;;11.80;5.35;;;33.20;92.10;;;;;;4159808;28;20475;-66
2022/05/28 10:11:05;;;;;;;13.13;5.60;;;32.80;92.40;;;;;;4158277;28;20045;-66
2022/05/28 10:13:19;;;;;;;15.00;5.05;;;32.80;92.60;;;;;;4157019;28;20041;-66
2022/05/28 10:15:29;;;;;;;11.25;5.40;;;32.60;92.70;;;;;;4156848;28;20400;-66
2022/05/28 10:17:34;;;;;;;15.65;5.13;;;32.60;92.70;;;;;;4121080;28;20034;-66
2022/05/28 10:19:43;;;;;;;9.95;4.63;;;32.50;92.70;;;;;;4142586;28;20085;-67
2022/05/28 10:21:51;;;;;;;13.77;5.68;;;32.50;92.80;;;;;;4157236;28;20176;-66
2022/05/28 10:23:59;;;;;;;13.32;6.20;;;32.30;92.90;;;;;;4127044;28;20074;-66
2022/05/28 10:26:05;;;;;;;9.82;5.18;;;32.20;93.40;;;;;;4125926;28;20054;-66
2022/05/28 10:28:13;;;;;;;10.05;4.88;;;32.30;93.00;;;;;;4148391;28;20041;-65
2022/05/28 10:30:30;;;;;;;10.80;4.72;;;32.20;93.00;;;;;;4130077;28;20057;-65
2022/05/28 10:32:53;;;;;;;9.57;4.65;;;32.10;93.00;;;;;;4148637;28;20042;-64
2022/05/28 10:35:04;;;;;;;;;;;32.20;92.80;;;;;;4143529;28;20034;-65
2022/05/28 10:37:15;;;;;;;7.60;3.30;;;32.20;92.40;;;;;;4146646;28;19932;-66
2022/05/28 10:39:23;;;;;;;8.23;3.03;;;32.20;92.00;;;;;;4129405;28;20046;-66
2022/05/28 10:41:29;;;;;;;6.93;3.30;;;32.20;92.40;;;;;;4125601;28;20050;-68
2022/05/28 10:43:37;;;;;;;6.03;3.10;;;32.00;92.20;;;;;;4148252;28;20510;-68
2022/05/28 10:45:46;;;;;;;6.10;2.55;;;32.00;92.40;;;;;;4155991;28;20160;-68
2022/05/28 10:48:14;;;;;;;9.40;3.50;;;31.90;92.50;;;;;;4127483;28;20461;-68
2022/05/28 10:50:40;;;;;;;6.15;2.78;;;31.90;92.50;;;;;;4144371;28;20224;-67
2022/05/28 10:52:59;;;;;;;5.75;3.60;;;31.90;92.30;;;;;;4140580;28;20057;-67
2022/05/28 10:55:12;;;;;;;8.23;3.47;;;31.90;92.10;;;;;;4158446;28;20617;-67
2022/05/28 10:57:27;;;;;;;9.90;4.05;;;32.00;92.40;;;;;;4154692;28;20045;-68
2022/05/28 10:59:47;;;;;;;8.15;3.80;;;32.00;92.40;;;;;;4150629;28;20581;-67
2022/05/28 11:02:26;;;;;;;9.85;3.92;;;32.10;92.40;;;;;;4156335;28;20091;-68
2022/05/28 11:04:53;;;;;;;11.15;4.78;;;32.00;92.70;;;;;;4161167;28;20587;-67
2022/05/28 11:07:35;;;;;;;11.90;5.60;;;31.90;93.10;;;;;;4165890;28;20057;-69
2022/05/28 11:09:49;;;;;;;10.68;6.40;;;31.90;93.40;;;;;;4157516;28;20049;-70
2022/05/28 11:12:08;;;;;;;17.13;7.40;;;31.80;93.60;;;;;;4157837;28;20071;-69
2022/05/28 11:14:21;;;;;;;18.58;7.30;;;31.70;93.90;;;;;;4163702;28;20046;-68
2022/05/28 11:16:51;;;;;;;16.52;7.72;;;31.70;94.50;;;;;;4162368;28;20039;-66
2022/05/28 11:19:23;;;;;;;16.40;6.97;;;31.60;95.10;;;;;;4157580;28;20519;-67
2022/05/28 11:21:44;;;;;;;19.60;8.13;;;31.60;95.50;;;;;;4164711;28;20056;-67